Time;durP1;ratioP1;P1;durP2;ratioP2;P2;SDS_P1;SDS_P2;PMS_P1;PMS_P2;Temp;Humidity;BMP_temperature;BMP_pressure;BME280_temperature;BME280_humidity;BME280_pressure;Samples;Min_cycle;Max_cycle;Signal;HPM_P1;HPM_P2
2022/11/03 00:01:49;;;;;;;10.53;3.90;;;;;;;;;;6185699;23;20174;-88
2022/11/03 00:04:19;;;;;;;8.90;4.03;;;;;;;;;;6159892;23;20277;-87
2022/11/03 00:06:49;;;;;;;10.53;4.03;;;;;;;;;;6183851;23;20238;-87
2022/11/03 00:09:18;;;;;;;9.37;3.93;;;;;;;;;;6159796;23;20175;-88
2022/11/03 00:11:47;;;;;;;9.93;4.10;;;;;;;;;;6185866;23;20171;-88
2022/11/03 00:14:16;;;;;;;9.93;3.73;;;;;;;;;;6186204;23;20207;-88
2022/11/03 00:16:45;;;;;;;7.33;3.13;;;;;;;;;;6185796;23;20178;-87
2022/11/03 00:19:15;;;;;;;9.00;3.43;;;;;;;;;;6159943;23;20185;-87
2022/11/03 00:21:57;;;;;;;8.43;4.27;;;;;;;;;;6159533;23;20167;-87
2022/11/03 00:24:28;;;;;;;11.27;4.17;;;;;;;;;;6159806;23;20175;-87
2022/11/03 00:27:11;;;;;;;11.40;4.10;;;;;;;;;;6154325;23;20195;-87
2022/11/03 00:29:39;;;;;;;9.93;3.40;;;;;;;;;;6185683;23;20231;-87
2022/11/03 00:32:07;;;;;;;11.47;3.50;;;;;;;;;;6184332;23;20201;-87
2022/11/03 00:34:37;;;;;;;11.10;4.33;;;;;;;;;;6159060;23;20175;-87
2022/11/03 00:37:12;;;;;;;8.57;4.40;;;;;;;;;;6184974;23;20226;-88
2022/11/03 00:39:40;;;;;;;13.00;3.73;;;;;;;;;;6183133;23;20178;-87
2022/11/03 00:42:08;;;;;;;8.23;3.73;;;;;;;;;;6184302;23;20201;-87
2022/11/03 00:44:40;;;;;;;12.33;4.57;;;;;;;;;;6159647;23;20243;-88
2022/11/03 00:47:08;;;;;;;10.27;4.03;;;;;;;;;;6159773;23;20198;-86
2022/11/03 00:49:38;;;;;;;9.43;3.40;;;;;;;;;;6159843;23;20171;-88
2022/11/03 00:52:06;;;;;;;7.90;3.30;;;;;;;;;;6184189;23;20182;-88
2022/11/03 00:54:35;;;;;;;5.20;2.10;;;;;;;;;;6159329;23;20225;-88
2022/11/03 00:57:03;;;;;;;10.90;3.87;;;;;;;;;;6184124;23;20222;-87
2022/11/03 00:59:31;;;;;;;13.33;4.00;;;;;;;;;;6159792;23;20178;-88
2022/11/03 01:02:00;;;;;;;16.17;4.80;;;;;;;;;;6159512;23;20175;-88
2022/11/03 01:07:16;;;;;;;12.60;4.07;;;;;;;;;;6158471;23;20215;-88
2022/11/03 01:09:44;;;;;;;12.53;4.47;;;;;;;;;;6184046;23;20206;-88
2022/11/03 01:12:13;;;;;;;6.57;3.20;;;;;;;;;;6159381;23;20182;-88
2022/11/03 01:14:43;;;;;;;10.57;3.73;;;;;;;;;;6185762;23;20193;-88
2022/11/03 01:17:13;;;;;;;6.63;3.73;;;;;;;;;;6158440;23;20206;-87
2022/11/03 01:19:41;;;;;;;8.70;3.80;;;;;;;;;;6160147;23;20183;-88
2022/11/03 01:22:10;;;;;;;9.47;4.03;;;;;;;;;;6185934;23;20185;-88
2022/11/03 01:24:40;;;;;;;12.50;3.80;;;;;;;;;;6161068;23;20173;-88
2022/11/03 01:27:09;;;;;;;7.50;2.50;;;;;;;;;;6161205;23;20190;-88
2022/11/03 01:29:37;;;;;;;5.37;2.70;;;;;;;;;;6187531;23;20171;-87
2022/11/03 01:32:07;;;;;;;10.87;3.83;;;;;;;;;;6160635;23;20170;-87
2022/11/03 01:34:35;;;;;;;14.20;4.10;;;;;;;;;;6187485;23;20177;-87
2022/11/03 01:37:09;;;;;;;9.60;5.03;;;;;;;;;;6186745;23;20200;-87
2022/11/03 01:39:37;;;;;;;9.70;3.47;;;;;;;;;;6161549;23;20178;-87
2022/11/03 01:42:07;;;;;;;10.23;3.50;;;;;;;;;;6161280;23;20171;-87
2022/11/03 01:44:37;;;;;;;14.23;4.60;;;;;;;;;;6160941;23;20229;-87
2022/11/03 01:47:09;;;;;;;14.03;4.63;;;;;;;;;;6160741;23;20175;-87
2022/11/03 01:49:41;;;;;;;11.00;4.07;;;;;;;;;;6161359;23;20175;-87
2022/11/03 01:52:12;;;;;;;9.57;3.77;;;;;;;;;;6187096;23;20178;-87
2022/11/03 01:54:44;;;;;;;11.90;3.63;;;;;;;;;;6186939;23;20178;-87
2022/11/03 01:57:16;;;;;;;10.83;5.10;;;;;;;;;;6187288;23;20175;-87
2022/11/03 01:59:46;;;;;;;9.47;3.57;;;;;;;;;;6161145;23;20206;-87
2022/11/03 02:02:24;;;;;;;9.23;3.70;;;;;;;;;;6160887;23;20184;-87
2022/11/03 02:04:54;;;;;;;10.20;4.13;;;;;;;;;;6186749;23;20214;-87
2022/11/03 02:07:28;;;;;;;18.40;6.03;;;;;;;;;;6160373;23;20217;-87
2022/11/03 02:09:57;;;;;;;11.50;4.63;;;;;;;;;;6187005;23;20198;-86
2022/11/03 02:12:28;;;;;;;4.87;2.07;;;;;;;;;;6161213;23;20199;-87
2022/11/03 02:14:58;;;;;;;18.20;4.87;;;;;;;;;;6185761;23;20194;-87
2022/11/03 02:17:33;;;;;;;9.73;4.43;;;;;;;;;;6161010;23;20237;-88
2022/11/03 02:20:23;;;;;;;7.73;3.37;;;;;;;;;;6160406;23;20212;-86
2022/11/03 02:23:15;;;;;;;7.73;3.23;;;;;;;;;;6185832;23;20175;-87
2022/11/03 02:25:46;;;;;;;11.67;3.70;;;;;;;;;;6176317;23;20237;-87
2022/11/03 02:28:15;;;;;;;9.17;3.90;;;;;;;;;;6186855;23;20194;-87
2022/11/03 02:30:45;;;;;;;10.80;4.23;;;;;;;;;;6160340;23;20179;-87
2022/11/03 02:33:21;;;;;;;10.73;3.60;;;;;;;;;;6186979;23;20171;-87
2022/11/03 02:35:53;;;;;;;7.17;3.30;;;;;;;;;;6186717;23;20202;-87
2022/11/03 02:38:33;;;;;;;8.00;3.70;;;;;;;;;;6160550;23;20181;-87
2022/11/03 02:41:10;;;;;;;11.77;4.23;;;;;;;;;;6160581;23;20178;-87
2022/11/03 02:43:39;;;;;;;7.43;3.20;;;;;;;;;;6160649;23;20230;-87
2022/11/03 02:46:08;;;;;;;9.20;4.90;;;;;;;;;;6185480;23;20183;-87
2022/11/03 02:48:40;;;;;;;10.00;4.03;;;;;;;;;;6160632;23;20195;-87
2022/11/03 02:51:11;;;;;;;9.17;4.20;;;;;;;;;;6186422;23;20185;-92
2022/11/03 02:53:43;;;;;;;8.70;3.13;;;;;;;;;;6161171;23;20253;-91
2022/11/03 02:56:14;;;;;;;8.30;3.40;;;;;;;;;;6160585;23;20171;-91
2022/11/03 02:58:46;;;;;;;11.47;4.17;;;;;;;;;;6186869;23;20190;-91
2022/11/03 03:01:17;;;;;;;7.77;3.33;;;;;;;;;;6161030;23;20178;-91
2022/11/03 03:03:48;;;;;;;13.40;4.97;;;;;;;;;;6185491;23;20206;-91
2022/11/03 03:06:36;;;;;;;14.63;5.53;;;;;;;;;;6185590;23;20186;-91
2022/11/03 03:09:06;;;;;;;12.60;4.80;;;;;;;;;;6160093;23;20214;-91
2022/11/03 03:11:37;;;;;;;9.17;3.50;;;;;;;;;;6161516;23;20175;-91
2022/11/03 03:14:12;;;;;;;8.80;3.03;;;;;;;;;;6185611;23;20182;-91
2022/11/03 03:16:48;;;;;;;9.70;2.53;;;;;;;;;;6161035;23;20175;-91
2022/11/03 03:19:31;;;;;;;7.07;3.23;;;;;;;;;;6160694;23;20168;-91
2022/11/03 03:22:01;;;;;;;10.37;3.70;;;;;;;;;;6160159;23;20247;-91
2022/11/03 03:24:34;;;;;;;6.50;3.30;;;;;;;;;;6185337;23;20181;-91
2022/11/03 03:27:14;;;;;;;11.03;4.13;;;;;;;;;;6186682;23;20171;-91
2022/11/03 03:29:46;;;;;;;10.87;4.23;;;;;;;;;;6186580;23;20245;-92
2022/11/03 03:32:17;;;;;;;12.33;4.50;;;;;;;;;;6160212;23;20178;-92
2022/11/03 03:34:47;;;;;;;7.27;2.63;;;;;;;;;;6160373;23;20175;-92
2022/11/03 03:37:17;;;;;;;9.77;4.00;;;;;;;;;;6185462;23;20254;-92
2022/11/03 03:39:47;;;;;;;6.80;3.03;;;;;;;;;;6185128;23;20234;-92
2022/11/03 03:42:17;;;;;;;10.17;4.07;;;;;;;;;;6160420;23;20236;-91
2022/11/03 03:44:47;;;;;;;7.13;2.70;;;;;;;;;;6160635;23;20182;-91
2022/11/03 03:47:18;;;;;;;11.43;4.83;;;;;;;;;;6160759;23;20233;-92
2022/11/03 03:49:46;;;;;;;14.13;4.80;;;;;;;;;;6160497;23;20193;-91
2022/11/03 03:52:15;;;;;;;11.17;4.23;;;;;;;;;;6160219;23;20273;-91
2022/11/03 03:54:51;;;;;;;9.03;4.80;;;;;;;;;;6159848;23;20179;-92
2022/11/03 03:57:22;;;;;;;12.43;5.60;;;;;;;;;;6160266;23;20174;-92
2022/11/03 03:59:56;;;;;;;9.03;3.47;;;;;;;;;;6185981;23;20190;-91
2022/11/03 04:02:47;;;;;;;11.03;3.97;;;;;;;;;;6185603;23;20188;-91
2022/11/03 04:05:16;;;;;;;13.83;4.40;;;;;;;;;;6160163;23;20170;-92
2022/11/03 04:07:47;;;;;;;8.43;3.40;;;;;;;;;;6159935;23;20179;-91
2022/11/03 04:10:15;;;;;;;12.40;3.37;;;;;;;;;;6185758;23;20216;-91
2022/11/03 04:23:59;;;;;;;13.43;4.20;;;;;;;;;;6097115;23;20175;-91
2022/11/03 04:26:28;;;;;;;11.67;4.27;;;;;;;;;;6159819;23;20178;-91
2022/11/03 04:28:58;;;;;;;16.87;4.00;;;;;;;;;;6186001;23;20197;-90
2022/11/03 04:31:27;;;;;;;14.23;4.00;;;;;;;;;;6184047;23;20190;-91
2022/11/03 04:34:00;;;;;;;9.37;3.43;;;;;;;;;;6159875;23;20178;-92
2022/11/03 04:36:28;;;;;;;17.80;4.90;;;;;;;;;;6185829;23;20182;-91
2022/11/03 04:38:58;;;;;;;13.13;4.73;;;;;;;;;;6159968;23;20181;-92
2022/11/03 04:41:30;;;;;;;8.50;3.70;;;;;;;;;;6159422;23;20187;-91
2022/11/03 04:44:05;;;;;;;7.60;2.67;;;;;;;;;;6184604;23;20182;-91
2022/11/03 04:46:33;;;;;;;7.37;3.80;;;;;;;;;;6159515;23;20178;-91
2022/11/03 04:49:02;;;;;;;8.67;3.97;;;;;;;;;;6159613;23;20194;-91
2022/11/03 04:51:33;;;;;;;7.90;3.13;;;;;;;;;;6159374;23;20178;-91
2022/11/03 04:54:03;;;;;;;11.00;5.37;;;;;;;;;;6160060;23;20277;-91
2022/11/03 04:56:32;;;;;;;15.57;6.13;;;;;;;;;;6159807;23;20186;-91
2022/11/03 04:59:02;;;;;;;11.60;4.50;;;;;;;;;;6159548;23;20181;-91
2022/11/03 05:01:30;;;;;;;10.83;4.80;;;;;;;;;;6185824;23;20168;-91
2022/11/03 05:03:59;;;;;;;10.50;3.97;;;;;;;;;;6159331;23;20199;-91
2022/11/03 05:06:41;;;;;;;11.77;4.47;;;;;;;;;;6185812;23;20171;-92
2022/11/03 05:09:13;;;;;;;12.07;4.23;;;;;;;;;;6184509;23;20218;-91
2022/11/03 05:11:44;;;;;;;6.60;2.80;;;;;;;;;;6185905;23;20229;-91
2022/11/03 05:14:19;;;;;;;16.07;4.83;;;;;;;;;;6159717;23;20179;-92
2022/11/03 05:17:00;;;;;;;11.50;3.90;;;;;;;;;;6159473;23;20183;-92
2022/11/03 05:19:34;;;;;;;9.50;5.33;;;;;;;;;;6159723;23;20171;-92
2022/11/03 05:22:03;;;;;;;5.27;2.97;;;;;;;;;;6159360;23;20212;-90
2022/11/03 05:24:33;;;;;;;7.17;3.57;;;;;;;;;;6184710;23;20175;-91
2022/11/03 05:27:04;;;;;;;8.10;3.43;;;;;;;;;;6159577;23;20236;-92
2022/11/03 05:29:36;;;;;;;8.53;3.43;;;;;;;;;;6185327;23;20207;-91
2022/11/03 05:32:11;;;;;;;8.30;4.30;;;;;;;;;;6159379;23;20179;-91
2022/11/03 05:34:41;;;;;;;5.70;3.13;;;;;;;;;;6159394;23;20181;-91
2022/11/03 05:37:22;;;;;;;12.93;3.57;;;;;;;;;;6185907;23;20198;-92
2022/11/03 05:39:57;;;;;;;10.80;3.93;;;;;;;;;;6158151;23;20185;-91
2022/11/03 05:42:29;;;;;;;6.23;2.77;;;;;;;;;;6159915;23;20182;-91
2022/11/03 05:44:59;;;;;;;7.00;3.57;;;;;;;;;;6184303;23;20170;-91
2022/11/03 05:47:32;;;;;;;11.77;4.30;;;;;;;;;;6185841;23;20170;-92
2022/11/03 05:50:02;;;;;;;10.47;4.73;;;;;;;;;;6184717;23;20198;-92
2022/11/03 05:52:36;;;;;;;10.07;3.80;;;;;;;;;;6185518;23;20182;-92
2022/11/03 05:55:04;;;;;;;11.60;4.80;;;;;;;;;;6159801;23;20179;-92
2022/11/03 05:57:35;;;;;;;9.40;4.93;;;;;;;;;;6186630;23;20174;-91
2022/11/03 06:00:28;;;;;;;10.33;3.43;;;;;;;;;;6184586;23;20171;-92
2022/11/03 06:03:15;;;;;;;9.90;4.30;;;;;;;;;;6156939;23;20185;-91
2022/11/03 06:05:49;;;;;;;6.37;3.67;;;;;;;;;;6185868;23;20182;-91
2022/11/03 06:08:20;;;;;;;9.50;4.40;;;;;;;;;;6160916;23;20207;-91
2022/11/03 06:11:01;;;;;;;13.40;3.97;;;;;;;;;;6160751;23;20261;-92
2022/11/03 06:13:38;;;;;;;7.27;3.00;;;;;;;;;;6161645;23;20184;-92
2022/11/03 06:16:31;;;;;;;10.77;3.93;;;;;;;;;;6161071;23;20178;-91
2022/11/03 06:19:11;;;;;;;10.60;3.33;;;;;;;;;;6161564;23;20175;-91
2022/11/03 06:21:39;;;;;;;10.47;4.93;;;;;;;;;;6185470;23;20181;-91
2022/11/03 06:24:13;;;;;;;14.83;4.97;;;;;;;;;;6161428;23;20253;-92
2022/11/03 06:26:52;;;;;;;6.50;3.33;;;;;;;;;;6186846;23;20258;-92
2022/11/03 06:29:24;;;;;;;9.00;4.23;;;;;;;;;;6185637;23;20181;-92
2022/11/03 06:32:07;;;;;;;8.13;4.37;;;;;;;;;;6161218;23;20179;-92
2022/11/03 06:34:44;;;;;;;11.47;4.47;;;;;;;;;;6160569;23;20182;-91
2022/11/03 06:37:18;;;;;;;10.80;3.53;;;;;;;;;;6185300;23;20181;-91
2022/11/03 06:39:47;;;;;;;9.37;3.43;;;;;;;;;;6185614;23;20171;-91
2022/11/03 06:42:39;;;;;;;;;;;;;;;;;;;;;
2022/11/03 06:45:25;;;;;;;4.90;2.97;;;;;;;;;;6185289;23;20185;-91
2022/11/03 06:48:04;;;;;;;8.23;4.00;;;;;;;;;;6159961;23;20185;-88
2022/11/03 06:50:43;;;;;;;10.20;4.07;;;;;;;;;;6160940;23;20238;-86
2022/11/03 06:53:19;;;;;;;5.33;2.73;;;;;;;;;;6160667;23;20254;-86
2022/11/03 06:55:49;;;;;;;13.90;3.73;;;;;;;;;;6185271;23;20185;-88
2022/11/03 06:58:20;;;;;;;6.33;3.50;;;;;;;;;;6186626;23;20181;-88
2022/11/03 07:00:49;;;;;;;9.37;4.80;;;;;;;;;;6185736;23;20171;-88
2022/11/03 07:06:26;;;;;;;6.50;4.10;;;;;;;;;;6186002;23;20185;-88
2022/11/03 07:09:14;;;;;;;11.93;4.30;;;;;;;;;;6159990;23;20213;-88
2022/11/03 07:11:48;;;;;;;7.60;4.77;;;;;;;;;;6159537;23;20197;-89
2022/11/03 07:14:24;;;;;;;9.37;3.00;;;;;;;;;;6186848;23;20171;-91
2022/11/03 07:24:32;;;;;;;7.17;2.83;;;;;;;;;;6186375;23;20297;-89
2022/11/03 07:27:15;;;;;;;9.00;3.70;;;;;;;;;;6159999;23;20209;-89
2022/11/03 07:39:53;;;;;;;6.53;3.57;;;;;;;;;;6186189;23;20150;-89
2022/11/03 07:42:28;;;;;;;8.90;4.33;;;;;;;;;;6185175;23;20178;-89
2022/11/03 07:45:03;;;;;;;9.57;3.80;;;;;;;;;;6162458;23;20195;-88
2022/11/03 07:55:30;;;;;;;9.73;3.93;;;;;;;;;;6160985;23;20242;-91
2022/11/03 07:58:02;;;;;;;13.13;3.80;;;;;;;;;;6161175;23;20237;-91
2022/11/03 08:00:31;;;;;;;6.07;3.50;;;;;;;;;;6185847;23;20171;-91
2022/11/03 08:09:41;;;;;;;9.27;4.43;;;;;;;;;;6215704;23;20165;-91
2022/11/03 08:12:12;;;;;;;9.67;4.23;;;;;;;;;;6192017;23;20194;-91
2022/11/03 08:14:42;;;;;;;7.77;3.60;;;;;;;;;;6191503;23;20179;-91
2022/11/03 08:17:30;;;;;;;9.77;4.30;;;;;;;;;;6192913;23;20239;-90
2022/11/03 08:20:01;;;;;;;9.30;4.20;;;;;;;;;;6191411;23;20210;-91
2022/11/03 08:22:30;;;;;;;14.60;4.80;;;;;;;;;;6191063;23;20178;-91
2022/11/03 08:25:02;;;;;;;9.70;4.20;;;;;;;;;;6191139;23;20176;-91
2022/11/03 08:27:34;;;;;;;8.63;4.50;;;;;;;;;;6190615;23;20174;-92
2022/11/03 08:30:04;;;;;;;9.23;4.47;;;;;;;;;;6191112;23;20265;-90
2022/11/03 08:32:33;;;;;;;8.20;3.73;;;;;;;;;;6190757;23;20198;-91
2022/11/03 08:35:02;;;;;;;12.00;4.67;;;;;;;;;;6191337;23;20189;-91
2022/11/03 08:37:31;;;;;;;8.47;3.73;;;;;;;;;;6191049;23;20179;-90
2022/11/03 08:40:00;;;;;;;13.90;5.60;;;;;;;;;;6191034;23;20178;-88
2022/11/03 08:42:30;;;;;;;10.23;5.27;;;;;;;;;;6191330;23;20179;-90
2022/11/03 08:46:35;;;;;;;6.73;3.70;;;;;;;;;;6163481;23;20261;-91
2022/11/03 09:10:17;;;;;;;8.57;4.27;;;;;;;;;;6216683;23;20202;-91
2022/11/03 09:12:52;;;;;;;14.20;4.83;;;;;;;;;;6192136;23;20182;-91
2022/11/03 09:15:53;;;;;;;10.70;4.33;;;;;;;;;;6068053;23;20252;-92
2022/11/03 09:18:24;;;;;;;10.77;4.80;;;;;;;;;;6142024;23;20224;-91
2022/11/03 09:20:53;;;;;;;9.17;3.57;;;;;;;;;;6190581;23;20193;-90
2022/11/03 09:23:22;;;;;;;13.30;5.70;;;;;;;;;;6191057;23;20178;-90
2022/11/03 09:25:55;;;;;;;10.00;5.10;;;;;;;;;;6191069;23;20204;-91
2022/11/03 09:28:23;;;;;;;9.40;4.80;;;;;;;;;;6216663;23;20167;-90
2022/11/03 09:34:22;;;;;;;13.27;5.37;;;;;;;;;;6191252;23;20212;-91
2022/11/03 09:36:59;;;;;;;11.03;4.80;;;;;;;;;;6190463;23;20190;-90
2022/11/03 09:58:40;;;;;;;12.23;5.73;;;;;;;;;;6192206;22;20215;-90
2022/11/03 10:01:10;;;;;;;6.63;3.70;;;;;;;;;;6187362;23;20214;-90
2022/11/03 10:03:39;;;;;;;9.90;4.40;;;;;;;;;;6186907;23;20201;-89
2022/11/03 10:06:09;;;;;;;10.40;4.50;;;;;;;;;;6187444;23;20186;-90
2022/11/03 10:08:44;;;;;;;12.03;4.97;;;;;;;;;;6187175;23;20233;-90
2022/11/03 10:11:13;;;;;;;7.80;4.03;;;;;;;;;;6212456;23;20277;-91
2022/11/03 10:13:46;;;;;;;10.73;4.60;;;;;;;;;;6187662;23;20243;-89
2022/11/03 10:16:16;;;;;;;14.80;5.10;;;;;;;;;;6187316;23;20179;-90
2022/11/03 10:18:45;;;;;;;12.13;4.27;;;;;;;;;;6186536;23;20202;-90
2022/11/03 10:31:15;;;;;;;8.37;3.93;;;;;;;;;;6187870;23;20203;-89
2022/11/03 10:34:05;;;;;;;9.37;3.93;;;;;;;;;;6189784;23;20366;-89
2022/11/03 10:36:35;;;;;;;8.10;2.53;;;;;;;;;;6192273;23;20174;-89
2022/11/03 10:39:18;;;;;;;10.77;3.37;;;;;;;;;;6192387;23;20178;-89
2022/11/03 10:41:56;;;;;;;8.23;3.97;;;;;;;;;;6190671;23;20174;-90
2022/11/03 10:44:26;;;;;;;7.63;4.57;;;;;;;;;;6216501;23;20178;-90
2022/11/03 10:46:59;;;;;;;10.03;4.83;;;;;;;;;;6191714;23;20202;-90
2022/11/03 10:49:30;;;;;;;11.40;3.43;;;;;;;;;;6216445;23;20182;-89
2022/11/03 10:52:08;;;;;;;10.73;4.27;;;;;;;;;;6191047;23;20185;-91
2022/11/03 10:54:38;;;;;;;8.57;4.30;;;;;;;;;;6190327;23;20261;-89
2022/11/03 10:57:07;;;;;;;8.93;4.80;;;;;;;;;;6191304;23;20174;-90
2022/11/03 10:59:37;;;;;;;10.97;3.70;;;;;;;;;;6191109;23;20182;-90
2022/11/03 11:06:19;;;;;;;10.83;4.13;;;;;;;;;;6067907;23;20251;-89
2022/11/03 11:09:28;;;;;;;3.30;2.20;;;;;;;;;;5986561;23;20187;-90
2022/11/03 11:23:51;;;;;;;8.73;4.17;;;;;;;;;;6017886;23;20170;-90
2022/11/03 11:26:51;;;;;;;14.43;3.83;;;;;;;;;;6014508;23;20178;-90
2022/11/03 11:40:59;;;;;;;6.40;3.37;;;;;;;;;;6067305;23;20178;-92
2022/11/03 11:47:19;;;;;;;8.40;3.63;;;;;;;;;;6058072;23;20164;-92
2022/11/03 11:50:18;;;;;;;9.33;3.40;;;;;;;;;;6156519;23;20188;-92
2022/11/03 11:52:51;;;;;;;5.23;3.27;;;;;;;;;;6131124;23;20199;-87
2022/11/03 11:55:24;;;;;;;3.03;1.77;;;;;;;;;;6155557;23;20187;-88
2022/11/03 11:57:54;;;;;;;6.87;3.27;;;;;;;;;;6132235;23;20180;-93
2022/11/03 12:04:17;;;;;;;9.83;3.33;;;;;;;;;;6159513;23;20256;-92
2022/11/03 12:06:46;;;;;;;7.47;3.60;;;;;;;;;;6131705;23;20175;-93
2022/11/03 12:09:21;;;;;;;7.30;3.17;;;;;;;;;;6157015;23;20245;-92
2022/11/03 12:11:51;;;;;;;6.83;3.17;;;;;;;;;;6131775;23;20195;-93
2022/11/03 12:14:36;;;;;;;7.27;3.40;;;;;;;;;;6131227;23;20172;-92
2022/11/03 12:17:24;;;;;;;6.90;3.23;;;;;;;;;;6132554;23;20211;-92
2022/11/03 12:19:53;;;;;;;6.43;3.20;;;;;;;;;;6156722;23;20211;-92
2022/11/03 12:22:40;;;;;;;7.93;3.37;;;;;;;;;;6155786;23;20175;-93
2022/11/03 12:25:27;;;;;;;5.10;2.93;;;;;;;;;;6134793;23;20176;-90
2022/11/03 12:28:31;;;;;;;7.77;3.40;;;;;;;;;;6158002;23;20177;-89
2022/11/03 12:31:04;;;;;;;8.37;3.37;;;;;;;;;;6133172;23;20203;-90
2022/11/03 12:33:36;;;;;;;5.53;2.90;;;;;;;;;;6181390;23;20211;-91
2022/11/03 12:36:05;;;;;;;9.67;3.20;;;;;;;;;;6164145;23;20175;-91
2022/11/03 12:38:34;;;;;;;4.40;3.20;;;;;;;;;;6162011;23;20183;-91
2022/11/03 12:43:51;;;;;;;9.27;3.20;;;;;;;;;;6186629;23;20176;-90
2022/11/03 12:46:59;;;;;;;;;;;;;;;;;;;;;
2022/11/03 12:49:34;;;;;;;5.50;3.67;;;;;;;;;;6161016;23;20187;-90
2022/11/03 12:52:05;;;;;;;6.80;2.67;;;;;;;;;;6161900;23;20183;-91
2022/11/03 12:54:36;;;;;;;5.97;3.93;;;;;;;;;;6161916;23;20180;-92
2022/11/03 12:57:05;;;;;;;6.40;2.97;;;;;;;;;;6161765;23;20175;-91
2022/11/03 12:59:34;;;;;;;11.10;3.60;;;;;;;;;;6161140;23;20193;-91
2022/11/03 13:02:11;;;;;;;8.63;3.90;;;;;;;;;;6161129;23;20273;-91
2022/11/03 13:04:46;;;;;;;8.13;3.00;;;;;;;;;;6160878;23;20199;-91
2022/11/03 13:07:15;;;;;;;6.67;3.13;;;;;;;;;;6161328;23;20175;-91
2022/11/03 13:09:53;;;;;;;5.20;2.97;;;;;;;;;;6095801;23;20185;-92
2022/11/03 13:12:35;;;;;;;4.83;2.20;;;;;;;;;;6155053;23;20202;-91
2022/11/03 13:15:08;;;;;;;2.47;1.80;;;;;;;;;;6164574;23;20234;-90
2022/11/03 13:17:39;;;;;;;5.07;3.37;;;;;;;;;;6165025;23;20198;-91
2022/11/03 13:20:30;;;;;;;4.30;2.60;;;;;;;;;;6164098;23;20206;-91
2022/11/03 13:23:04;;;;;;;3.27;2.10;;;;;;;;;;6165129;23;20176;-91
2022/11/03 13:25:41;;;;;;;7.33;2.73;;;;;;;;;;6164966;23;20176;-91
2022/11/03 13:28:13;;;;;;;7.20;3.07;;;;;;;;;;6164309;23;20182;-91
2022/11/03 13:30:48;;;;;;;4.13;2.00;;;;;;;;;;6166016;23;20180;-90
2022/11/03 13:33:24;;;;;;;5.27;2.20;;;;;;;;;;6180684;23;20242;-91
2022/11/03 13:35:53;;;;;;;9.37;3.23;;;;;;;;;;6163649;23;20184;-92
2022/11/03 13:38:22;;;;;;;7.10;2.90;;;;;;;;;;6188369;23;20183;-91
2022/11/03 13:40:55;;;;;;;6.07;2.47;;;;;;;;;;6164434;23;20209;-89
2022/11/03 13:43:32;;;;;;;4.83;2.27;;;;;;;;;;6187994;23;20199;-89
2022/11/03 13:46:02;;;;;;;7.60;2.50;;;;;;;;;;6187710;23;20180;-90
2022/11/03 13:48:33;;;;;;;6.80;2.87;;;;;;;;;;6188644;23;20184;-90
2022/11/03 13:51:21;;;;;;;5.33;2.37;;;;;;;;;;6162916;23;20181;-84
2022/11/03 13:53:50;;;;;;;2.97;2.07;;;;;;;;;;6188764;23;20196;-90
2022/11/03 13:56:39;;;;;;;5.50;2.50;;;;;;;;;;6163400;23;20188;-89
2022/11/03 13:59:27;;;;;;;6.00;3.23;;;;;;;;;;6188112;23;20178;-90
2022/11/03 14:01:56;;;;;;;3.40;1.97;;;;;;;;;;6188315;23;20175;-88
2022/11/03 14:04:47;;;;;;;4.87;2.57;;;;;;;;;;6187802;23;20195;-89
2022/11/03 14:07:15;;;;;;;3.20;2.20;;;;;;;;;;6163518;23;20179;-89
2022/11/03 14:09:44;;;;;;;3.67;2.07;;;;;;;;;;6163813;23;20179;-89
2022/11/03 14:12:30;;;;;;;2.47;2.27;;;;;;;;;;6163681;23;20175;-89
2022/11/03 14:14:58;;;;;;;4.33;1.87;;;;;;;;;;6164503;23;20206;-90
2022/11/03 14:17:29;;;;;;;2.37;1.67;;;;;;;;;;6163375;23;20203;-90
2022/11/03 14:19:59;;;;;;;5.53;2.00;;;;;;;;;;6188366;23;20175;-90
2022/11/03 14:22:33;;;;;;;6.17;2.67;;;;;;;;;;6189458;23;20168;-89
2022/11/03 14:25:02;;;;;;;3.50;2.40;;;;;;;;;;6187720;23;20263;-88
2022/11/03 14:27:31;;;;;;;2.63;2.23;;;;;;;;;;6186239;23;20186;-90
2022/11/03 14:30:00;;;;;;;3.70;2.40;;;;;;;;;;6186599;23;20215;-89
2022/11/03 14:32:29;;;;;;;5.87;1.97;;;;;;;;;;6182231;23;20209;-90
2022/11/03 14:34:58;;;;;;;6.67;3.03;;;;;;;;;;6156323;23;20232;-89
2022/11/03 14:37:29;;;;;;;5.07;2.37;;;;;;;;;;6156567;23;20208;-89
2022/11/03 14:39:57;;;;;;;2.23;1.97;;;;;;;;;;6156107;23;20180;-90
2022/11/03 14:42:25;;;;;;;4.90;2.20;;;;;;;;;;6156652;23;20181;-90
2022/11/03 14:44:54;;;;;;;5.83;1.80;;;;;;;;;;6156470;23;20272;-91
2022/11/03 14:47:24;;;;;;;5.10;2.03;;;;;;;;;;6159133;23;20185;-89
2022/11/03 14:49:53;;;;;;;5.37;3.10;;;;;;;;;;6156934;23;20206;-90
2022/11/03 14:52:23;;;;;;;11.30;2.77;;;;;;;;;;6157710;23;20236;-92
2022/11/03 14:54:56;;;;;;;2.57;2.10;;;;;;;;;;6156744;23;20196;-92
2022/11/03 14:57:30;;;;;;;3.33;2.40;;;;;;;;;;6156752;23;20183;-93
2022/11/03 15:00:04;;;;;;;3.87;2.60;;;;;;;;;;6157201;23;20213;-93
2022/11/03 15:02:34;;;;;;;2.73;1.83;;;;;;;;;;6156940;23;20181;-91
2022/11/03 15:05:03;;;;;;;2.07;1.87;;;;;;;;;;6157390;23;20224;-91
2022/11/03 15:07:32;;;;;;;6.90;3.10;;;;;;;;;;6157375;23;20185;-92
2022/11/03 15:14:36;;;;;;;;;;;;;;;;;;;;;
2022/11/03 15:21:50;;;;;;;4.10;2.67;;;;;;;;;;6038666;23;20230;-91
2022/11/03 15:24:21;;;;;;;3.83;2.07;;;;;;;;;;6017811;23;20174;-91
2022/11/03 15:38:31;;;;;;;4.63;2.03;;;;;;;;;;5955243;23;20166;-90
2022/11/03 15:45:39;;;;;;;3.43;2.70;;;;;;;;;;5953617;23;20194;-87
2022/11/03 16:06:19;;;;;;;3.20;1.93;;;;;;;;;;6185539;22;20216;-86
2022/11/03 16:09:04;;;;;;;4.27;2.30;;;;;;;;;;6184801;23;20176;-86
2022/11/03 16:11:33;;;;;;;3.57;2.60;;;;;;;;;;6184701;23;20259;-87
2022/11/03 16:14:02;;;;;;;3.93;2.53;;;;;;;;;;6160430;23;20247;-86
2022/11/03 16:16:30;;;;;;;6.87;2.60;;;;;;;;;;6160115;23;20190;-87
2022/11/03 16:18:59;;;;;;;3.03;2.10;;;;;;;;;;6159730;23;20175;-87
2022/11/03 16:21:28;;;;;;;5.07;2.20;;;;;;;;;;6159857;23;20240;-87
2022/11/03 16:24:35;;;;;;;4.30;2.33;;;;;;;;;;6160524;23;20236;-87
2022/11/03 16:30:44;;;;;;;3.23;2.33;;;;;;;;;;6161716;23;20167;-91
2022/11/03 16:33:20;;;;;;;6.30;2.97;;;;;;;;;;6161390;23;20206;-92
2022/11/03 16:35:52;;;;;;;4.97;2.57;;;;;;;;;;6161581;23;20171;-92
2022/11/03 16:38:21;;;;;;;5.70;2.60;;;;;;;;;;6161035;23;20190;-91
2022/11/03 16:57:53;;;;;;;3.57;2.63;;;;;;;;;;6182143;23;20178;-88
2022/11/03 17:00:26;;;;;;;9.97;3.50;;;;;;;;;;6185576;23;20175;-87
2022/11/03 17:02:58;;;;;;;6.40;3.57;;;;;;;;;;6184979;23;20282;-88
2022/11/03 17:05:27;;;;;;;3.97;2.80;;;;;;;;;;6159645;23;20211;-88
2022/11/03 17:08:02;;;;;;;4.50;3.40;;;;;;;;;;6159672;23;20258;-88
2022/11/03 17:10:35;;;;;;;6.23;3.90;;;;;;;;;;6184481;23;20206;-86
2022/11/03 17:13:29;;;;;;;3.97;2.73;;;;;;;;;;6185995;23;20180;-86
2022/11/03 17:16:06;;;;;;;4.60;3.10;;;;;;;;;;6160597;23;20211;-87
2022/11/03 17:18:38;;;;;;;5.77;3.33;;;;;;;;;;6184675;23;20178;-87
2022/11/03 17:21:13;;;;;;;5.90;3.63;;;;;;;;;;6160957;23;20172;-87
2022/11/03 17:23:48;;;;;;;5.50;4.00;;;;;;;;;;6159827;23;20257;-87
2022/11/03 17:26:33;;;;;;;6.23;4.50;;;;;;;;;;6160053;23;20175;-87
2022/11/03 17:29:20;;;;;;;7.10;3.40;;;;;;;;;;6159302;23;20179;-88
2022/11/03 17:32:22;;;;;;;9.80;3.90;;;;;;;;;;6159681;23;20174;-87
2022/11/03 17:37:37;;;;;;;10.87;3.00;;;;;;;;;;6159682;23;20179;-86
2022/11/03 17:40:15;;;;;;;7.37;4.23;;;;;;;;;;6160183;23;20171;-87
2022/11/03 17:42:44;;;;;;;6.73;5.13;;;;;;;;;;6159672;23;20183;-87
2022/11/03 17:45:27;;;;;;;5.10;4.60;;;;;;;;;;6159091;23;20167;-86
2022/11/03 17:48:00;;;;;;;5.77;4.10;;;;;;;;;;6159920;23;20179;-87
2022/11/03 17:50:36;;;;;;;7.17;3.53;;;;;;;;;;6185781;23;20171;-87
2022/11/03 17:53:04;;;;;;;5.93;4.53;;;;;;;;;;6185949;23;20175;-87
2022/11/03 17:55:48;;;;;;;6.43;5.37;;;;;;;;;;6184475;23;20197;-86
2022/11/03 17:58:45;;;;;;;6.20;4.23;;;;;;;;;;6157656;23;20179;-86
2022/11/03 18:01:19;;;;;;;6.77;4.70;;;;;;;;;;6185183;23;20182;-87
2022/11/03 18:03:50;;;;;;;7.37;5.07;;;;;;;;;;6187335;23;20214;-86
2022/11/03 18:06:20;;;;;;;8.70;6.20;;;;;;;;;;6187394;23;20195;-87
2022/11/03 18:08:49;;;;;;;8.00;6.63;;;;;;;;;;6161120;23;20174;-86
2022/11/03 18:14:04;;;;;;;7.87;5.63;;;;;;;;;;6160159;23;20179;-87
2022/11/03 18:16:33;;;;;;;5.40;4.73;;;;;;;;;;6187348;23;20179;-87
2022/11/03 18:19:03;;;;;;;7.83;5.17;;;;;;;;;;6187458;23;20175;-87
2022/11/03 18:21:33;;;;;;;7.13;4.47;;;;;;;;;;6187205;23;20221;-86
2022/11/03 18:24:01;;;;;;;10.50;6.47;;;;;;;;;;6161918;23;20175;-87
2022/11/03 18:26:47;;;;;;;3.13;2.83;;;;;;;;;;6161471;23;20175;-87
2022/11/03 18:29:15;;;;;;;7.97;5.80;;;;;;;;;;6161514;23;20182;-87
2022/11/03 18:31:48;;;;;;;6.67;4.07;;;;;;;;;;6187323;23;20179;-87
2022/11/03 18:34:26;;;;;;;4.90;4.40;;;;;;;;;;6185574;23;20179;-86
2022/11/03 18:37:04;;;;;;;12.63;7.00;;;;;;;;;;6187334;23;20171;-86
2022/11/03 18:39:50;;;;;;;11.40;6.67;;;;;;;;;;6161891;23;20174;-87
2022/11/03 18:42:18;;;;;;;8.10;5.27;;;;;;;;;;6160116;23;20198;-87
2022/11/03 18:45:03;;;;;;;8.77;6.83;;;;;;;;;;6160701;23;20249;-87
2022/11/03 18:47:41;;;;;;;7.63;6.13;;;;;;;;;;6159526;23;20253;-87
2022/11/03 18:50:19;;;;;;;8.90;7.00;;;;;;;;;;6160823;23;20187;-87
2022/11/03 18:52:48;;;;;;;8.90;7.07;;;;;;;;;;6186929;23;20171;-87